sensor_id;sensor_type;location;lat;lon;timestamp;temperature;humidity
17659;DHT22;8948;51.534;8.262;2022-08-27T02:00:47;20.30;71.20
17659;DHT22;8948;51.534;8.262;2022-08-27T02:05:48;20.20;72.20
17659;DHT22;8948;51.534;8.262;2022-08-27T02:10:49;20.20;71.70
17659;DHT22;8948;51.534;8.262;2022-08-27T02:15:50;20.00;72.50
17659;DHT22;8948;51.534;8.262;2022-08-27T02:20:51;20.00;72.80
17659;DHT22;8948;51.534;8.262;2022-08-27T02:25:51;20.00;73.00
17659;DHT22;8948;51.534;8.262;2022-08-27T02:30:52;20.00;72.60
17659;DHT22;8948;51.534;8.262;2022-08-27T02:35:52;20.10;72.70
17659;DHT22;8948;51.534;8.262;2022-08-27T02:40:53;20.10;72.90
17659;DHT22;8948;51.534;8.262;2022-08-27T02:45:54;19.80;73.70
17659;DHT22;8948;51.534;8.262;2022-08-27T02:50:54;19.80;74.00
17659;DHT22;8948;51.534;8.262;2022-08-27T02:55:55;19.90;73.60
17659;DHT22;8948;51.534;8.262;2022-08-27T03:00:55;19.80;73.70
17659;DHT22;8948;51.534;8.262;2022-08-27T03:05:57;19.70;74.10
17659;DHT22;8948;51.534;8.262;2022-08-27T03:10:58;19.70;74.40
17659;DHT22;8948;51.534;8.262;2022-08-27T03:15:59;19.80;74.10
17659;DHT22;8948;51.534;8.262;2022-08-27T03:21:00;19.70;74.40
17659;DHT22;8948;51.534;8.262;2022-08-27T03:26:09;19.60;74.60
17659;DHT22;8948;51.534;8.262;2022-08-27T03:31:16;19.60;74.70
17659;DHT22;8948;51.534;8.262;2022-08-27T03:36:20;19.40;75.30
17659;DHT22;8948;51.534;8.262;2022-08-27T03:41:21;19.60;74.60
17659;DHT22;8948;51.534;8.262;2022-08-27T03:46:22;20.00;73.10
17659;DHT22;8948;51.534;8.262;2022-08-27T03:51:22;19.90;73.10
17659;DHT22;8948;51.534;8.262;2022-08-27T03:56:23;20.00;72.80
17659;DHT22;8948;51.534;8.262;2022-08-27T04:01:24;20.00;72.60
17659;DHT22;8948;51.534;8.262;2022-08-27T04:06:24;19.90;72.80
17659;DHT22;8948;51.534;8.262;2022-08-27T04:11:25;20.10;72.20
17659;DHT22;8948;51.534;8.262;2022-08-27T04:16:26;20.20;71.70
17659;DHT22;8948;51.534;8.262;2022-08-27T04:21:28;20.10;71.70
17659;DHT22;8948;51.534;8.262;2022-08-27T04:26:29;19.80;72.60
17659;DHT22;8948;51.534;8.262;2022-08-27T04:31:30;20.00;72.10
17659;DHT22;8948;51.534;8.262;2022-08-27T04:36:30;20.10;71.80
17659;DHT22;8948;51.534;8.262;2022-08-27T04:41:31;19.70;72.90
17659;DHT22;8948;51.534;8.262;2022-08-27T04:46:35;19.50;73.70
17659;DHT22;8948;51.534;8.262;2022-08-27T04:51:37;19.20;74.30
17659;DHT22;8948;51.534;8.262;2022-08-27T04:56:38;19.00;74.90
17659;DHT22;8948;51.534;8.262;2022-08-27T05:01:40;19.00;75.00
17659;DHT22;8948;51.534;8.262;2022-08-27T05:06:41;19.00;75.00
17659;DHT22;8948;51.534;8.262;2022-08-27T05:11:44;18.90;75.70
17659;DHT22;8948;51.534;8.262;2022-08-27T05:16:45;18.90;75.10
17659;DHT22;8948;51.534;8.262;2022-08-27T05:21:48;19.00;74.70
17659;DHT22;8948;51.534;8.262;2022-08-27T05:26:49;19.10;74.40
17659;DHT22;8948;51.534;8.262;2022-08-27T05:31:50;19.20;74.10
17659;DHT22;8948;51.534;8.262;2022-08-27T05:36:50;19.20;74.10
17659;DHT22;8948;51.534;8.262;2022-08-27T05:41:55;19.10;74.20
17659;DHT22;8948;51.534;8.262;2022-08-27T05:46:56;19.00;74.40
17659;DHT22;8948;51.534;8.262;2022-08-27T05:51:57;18.90;75.10
17659;DHT22;8948;51.534;8.262;2022-08-27T05:56:57;18.70;75.60
17659;DHT22;8948;51.534;8.262;2022-08-27T06:01:58;18.80;75.10
17659;DHT22;8948;51.534;8.262;2022-08-27T06:06:59;18.80;75.20
17659;DHT22;8948;51.534;8.262;2022-08-27T06:12:00;18.90;74.90
17659;DHT22;8948;51.534;8.262;2022-08-27T06:17:02;18.90;74.90
17659;DHT22;8948;51.534;8.262;2022-08-27T06:22:03;18.90;75.00
17659;DHT22;8948;51.534;8.262;2022-08-27T06:27:04;18.80;75.30
17659;DHT22;8948;51.534;8.262;2022-08-27T06:32:05;18.80;75.20
17659;DHT22;8948;51.534;8.262;2022-08-27T06:37:06;18.70;75.50
17659;DHT22;8948;51.534;8.262;2022-08-27T06:42:10;18.80;75.20
17659;DHT22;8948;51.534;8.262;2022-08-27T06:47:11;18.90;74.70
17659;DHT22;8948;51.534;8.262;2022-08-27T06:52:13;18.80;74.70
17659;DHT22;8948;51.534;8.262;2022-08-27T06:57:13;18.90;74.40
17659;DHT22;8948;51.534;8.262;2022-08-27T07:02:15;19.00;74.00
17659;DHT22;8948;51.534;8.262;2022-08-27T07:07:16;19.10;74.20
17659;DHT22;8948;51.534;8.262;2022-08-27T07:12:16;19.20;73.50
17659;DHT22;8948;51.534;8.262;2022-08-27T07:17:17;19.30;73.30
17659;DHT22;8948;51.534;8.262;2022-08-27T07:22:18;19.40;73.60
17659;DHT22;8948;51.534;8.262;2022-08-27T07:27:18;19.40;72.80
17659;DHT22;8948;51.534;8.262;2022-08-27T07:32:20;19.50;72.90
17659;DHT22;8948;51.534;8.262;2022-08-27T07:37:21;19.70;72.60
17659;DHT22;8948;51.534;8.262;2022-08-27T07:42:21;19.90;71.60
17659;DHT22;8948;51.534;8.262;2022-08-27T07:47:40;20.00;70.90
17659;DHT22;8948;51.534;8.262;2022-08-27T07:52:41;20.10;71.00
17659;DHT22;8948;51.534;8.262;2022-08-27T07:57:43;20.00;71.20
17659;DHT22;8948;51.534;8.262;2022-08-27T08:02:44;19.90;71.80
17659;DHT22;8948;51.534;8.262;2022-08-27T08:07:46;19.70;71.50
17659;DHT22;8948;51.534;8.262;2022-08-27T08:12:47;19.60;72.30
17659;DHT22;8948;51.534;8.262;2022-08-27T08:17:48;19.60;72.50
17659;DHT22;8948;51.534;8.262;2022-08-27T08:22:48;19.60;72.90
17659;DHT22;8948;51.534;8.262;2022-08-27T08:27:49;19.70;72.30
17659;DHT22;8948;51.534;8.262;2022-08-27T08:32:49;19.70;72.60
17659;DHT22;8948;51.534;8.262;2022-08-27T08:37:50;19.80;71.90
17659;DHT22;8948;51.534;8.262;2022-08-27T08:42:53;20.00;71.60
17659;DHT22;8948;51.534;8.262;2022-08-27T08:48:11;20.10;71.30
17659;DHT22;8948;51.534;8.262;2022-08-27T08:53:21;20.10;71.20
17659;DHT22;8948;51.534;8.262;2022-08-27T08:58:37;20.10;70.20
17659;DHT22;8948;51.534;8.262;2022-08-27T09:03:39;20.10;70.60
17659;DHT22;8948;51.534;8.262;2022-08-27T09:08:42;20.10;70.00
17659;DHT22;8948;51.534;8.262;2022-08-27T09:13:48;20.00;69.90
17659;DHT22;8948;51.534;8.262;2022-08-27T09:18:50;20.00;69.90
17659;DHT22;8948;51.534;8.262;2022-08-27T09:23:54;20.20;69.30
17659;DHT22;8948;51.534;8.262;2022-08-27T09:29:05;20.60;67.60
17659;DHT22;8948;51.534;8.262;2022-08-27T09:34:15;20.80;66.70
17659;DHT22;8948;51.534;8.262;2022-08-27T09:39:16;20.90;66.20
17659;DHT22;8948;51.534;8.262;2022-08-27T09:44:18;21.00;66.50
17659;DHT22;8948;51.534;8.262;2022-08-27T09:49:19;21.30;65.10
17659;DHT22;8948;51.534;8.262;2022-08-27T09:54:40;21.50;64.00
17659;DHT22;8948;51.534;8.262;2022-08-27T09:59:52;21.60;64.10
17659;DHT22;8948;51.534;8.262;2022-08-27T10:04:56;21.50;63.30
17659;DHT22;8948;51.534;8.262;2022-08-27T10:10:15;21.30;64.70
17659;DHT22;8948;51.534;8.262;2022-08-27T10:15:17;21.40;64.00
17659;DHT22;8948;51.534;8.262;2022-08-27T10:31:37;21.60;62.20
17659;DHT22;8948;51.534;8.262;2022-08-27T10:36:47;21.50;62.60
17659;DHT22;8948;51.534;8.262;2022-08-27T11:03:01;21.90;60.70
17659;DHT22;8948;51.534;8.262;2022-08-27T11:08:12;22.10;60.70
17659;DHT22;8948;51.534;8.262;2022-08-27T11:13:32;21.90;61.10
17659;DHT22;8948;51.534;8.262;2022-08-27T11:29:27;21.80;60.60
17659;DHT22;8948;51.534;8.262;2022-08-27T11:34:41;22.00;60.60
17659;DHT22;8948;51.534;8.262;2022-08-27T11:50:15;21.30;61.70
17659;DHT22;8948;51.534;8.262;2022-08-27T12:05:43;21.50;61.30
17659;DHT22;8948;51.534;8.262;2022-08-27T12:11:12;21.70;59.50
17659;DHT22;8948;51.534;8.262;2022-08-27T12:26:35;21.50;60.50
17659;DHT22;8948;51.534;8.262;2022-08-27T12:31:39;21.30;61.20
17659;DHT22;8948;51.534;8.262;2022-08-27T12:36:40;21.30;61.10
17659;DHT22;8948;51.534;8.262;2022-08-27T12:41:47;21.40;60.70
17659;DHT22;8948;51.534;8.262;2022-08-27T12:46:56;21.40;60.50
17659;DHT22;8948;51.534;8.262;2022-08-27T12:52:00;21.40;60.40
17659;DHT22;8948;51.534;8.262;2022-08-27T12:57:16;21.40;60.70
17659;DHT22;8948;51.534;8.262;2022-08-27T13:07:47;21.20;61.30
17659;DHT22;8948;51.534;8.262;2022-08-27T13:13:01;21.30;60.70
17659;DHT22;8948;51.534;8.262;2022-08-27T13:18:03;21.50;61.30
17659;DHT22;8948;51.534;8.262;2022-08-27T13:23:12;21.50;60.30
17659;DHT22;8948;51.534;8.262;2022-08-27T13:28:14;21.40;60.40
17659;DHT22;8948;51.534;8.262;2022-08-27T13:33:22;21.30;60.80
17659;DHT22;8948;51.534;8.262;2022-08-27T13:38:26;21.40;60.10
17659;DHT22;8948;51.534;8.262;2022-08-27T13:43:43;21.40;60.10
17659;DHT22;8948;51.534;8.262;2022-08-27T13:48:48;21.50;59.80
17659;DHT22;8948;51.534;8.262;2022-08-27T13:53:49;21.50;59.70
17659;DHT22;8948;51.534;8.262;2022-08-27T13:59:29;21.50;60.20
17659;DHT22;8948;51.534;8.262;2022-08-27T14:04:45;21.40;59.80
17659;DHT22;8948;51.534;8.262;2022-08-27T14:09:48;21.30;59.50
17659;DHT22;8948;51.534;8.262;2022-08-27T14:14:51;21.30;59.60
17659;DHT22;8948;51.534;8.262;2022-08-27T14:19:59;21.30;59.40
17659;DHT22;8948;51.534;8.262;2022-08-27T14:25:00;21.20;58.90
17659;DHT22;8948;51.534;8.262;2022-08-27T14:30:02;21.20;59.20
17659;DHT22;8948;51.534;8.262;2022-08-27T14:35:03;21.30;59.00
17659;DHT22;8948;51.534;8.262;2022-08-27T14:40:04;21.30;58.40
17659;DHT22;8948;51.534;8.262;2022-08-27T14:45:06;21.30;58.80
17659;DHT22;8948;51.534;8.262;2022-08-27T14:50:09;21.30;58.70
17659;DHT22;8948;51.534;8.262;2022-08-27T14:55:10;21.40;58.10
17659;DHT22;8948;51.534;8.262;2022-08-27T15:00:13;21.50;57.80
17659;DHT22;8948;51.534;8.262;2022-08-27T15:05:16;21.60;58.00
17659;DHT22;8948;51.534;8.262;2022-08-27T15:10:17;21.70;57.20
17659;DHT22;8948;51.534;8.262;2022-08-27T15:15:18;21.70;57.00
17659;DHT22;8948;51.534;8.262;2022-08-27T15:20:19;21.80;57.10
17659;DHT22;8948;51.534;8.262;2022-08-27T15:25:20;21.90;56.50
17659;DHT22;8948;51.534;8.262;2022-08-27T15:30:27;21.90;56.60
17659;DHT22;8948;51.534;8.262;2022-08-27T15:35:29;22.00;56.50
17659;DHT22;8948;51.534;8.262;2022-08-27T15:40:31;22.00;56.20
17659;DHT22;8948;51.534;8.262;2022-08-27T15:45:33;21.90;55.90
17659;DHT22;8948;51.534;8.262;2022-08-27T15:50:36;21.80;55.60
17659;DHT22;8948;51.534;8.262;2022-08-27T15:55:38;21.80;56.20
17659;DHT22;8948;51.534;8.262;2022-08-27T16:00:41;21.70;56.20
17659;DHT22;8948;51.534;8.262;2022-08-27T16:05:44;21.70;56.00
17659;DHT22;8948;51.534;8.262;2022-08-27T16:10:45;21.70;56.10
17659;DHT22;8948;51.534;8.262;2022-08-27T16:15:46;21.80;56.00
17659;DHT22;8948;51.534;8.262;2022-08-27T16:20:46;21.90;55.90
17659;DHT22;8948;51.534;8.262;2022-08-27T16:25:47;21.90;55.80
17659;DHT22;8948;51.534;8.262;2022-08-27T16:30:49;22.00;55.40
17659;DHT22;8948;51.534;8.262;2022-08-27T16:35:51;22.00;55.40
17659;DHT22;8948;51.534;8.262;2022-08-27T16:40:53;21.90;55.60
17659;DHT22;8948;51.534;8.262;2022-08-27T16:45:56;21.80;55.60
17659;DHT22;8948;51.534;8.262;2022-08-27T16:50:57;21.70;55.80
17659;DHT22;8948;51.534;8.262;2022-08-27T16:55:58;21.70;55.80
17659;DHT22;8948;51.534;8.262;2022-08-27T17:01:06;21.60;55.90
17659;DHT22;8948;51.534;8.262;2022-08-27T17:06:08;21.60;55.30
17659;DHT22;8948;51.534;8.262;2022-08-27T17:11:15;21.50;55.70
17659;DHT22;8948;51.534;8.262;2022-08-27T17:16:19;21.40;55.50
17659;DHT22;8948;51.534;8.262;2022-08-27T17:21:21;21.40;55.60
17659;DHT22;8948;51.534;8.262;2022-08-27T17:26:21;21.30;55.70
17659;DHT22;8948;51.534;8.262;2022-08-27T17:31:34;21.30;55.80
17659;DHT22;8948;51.534;8.262;2022-08-27T17:36:36;21.30;56.10
17659;DHT22;8948;51.534;8.262;2022-08-27T17:41:39;21.10;56.60
17659;DHT22;8948;51.534;8.262;2022-08-27T17:46:41;21.20;56.60
17659;DHT22;8948;51.534;8.262;2022-08-27T17:51:46;21.00;56.70
17659;DHT22;8948;51.534;8.262;2022-08-27T17:56:47;21.00;56.70
17659;DHT22;8948;51.534;8.262;2022-08-27T18:01:48;20.90;56.80
17659;DHT22;8948;51.534;8.262;2022-08-27T18:06:49;20.90;56.80
17659;DHT22;8948;51.534;8.262;2022-08-27T18:11:49;20.90;56.80
17659;DHT22;8948;51.534;8.262;2022-08-27T18:16:50;20.80;57.00
17659;DHT22;8948;51.534;8.262;2022-08-27T18:21:51;20.80;57.00
17659;DHT22;8948;51.534;8.262;2022-08-27T18:26:52;20.70;57.20
17659;DHT22;8948;51.534;8.262;2022-08-27T18:31:52;20.70;57.30
17659;DHT22;8948;51.534;8.262;2022-08-27T18:36:53;20.80;57.30
17659;DHT22;8948;51.534;8.262;2022-08-27T18:41:53;20.70;57.50
17659;DHT22;8948;51.534;8.262;2022-08-27T18:46:54;20.80;57.50
17659;DHT22;8948;51.534;8.262;2022-08-27T18:51:55;20.80;57.60
17659;DHT22;8948;51.534;8.262;2022-08-27T18:56:56;20.80;57.60
17659;DHT22;8948;51.534;8.262;2022-08-27T19:01:56;20.80;57.60
17659;DHT22;8948;51.534;8.262;2022-08-27T19:06:57;20.80;57.30
17659;DHT22;8948;51.534;8.262;2022-08-27T19:11:57;20.80;57.60
17659;DHT22;8948;51.534;8.262;2022-08-27T19:17:00;20.80;57.60
17659;DHT22;8948;51.534;8.262;2022-08-27T19:22:01;20.80;57.40
17659;DHT22;8948;51.534;8.262;2022-08-27T19:27:02;20.80;57.30
17659;DHT22;8948;51.534;8.262;2022-08-27T19:32:03;20.80;57.20
17659;DHT22;8948;51.534;8.262;2022-08-27T19:37:05;20.80;57.40
17659;DHT22;8948;51.534;8.262;2022-08-27T19:42:07;20.70;57.80
17659;DHT22;8948;51.534;8.262;2022-08-27T19:47:09;20.80;57.60
17659;DHT22;8948;51.534;8.262;2022-08-27T19:52:10;20.70;57.90
17659;DHT22;8948;51.534;8.262;2022-08-27T19:57:10;20.70;57.90
17659;DHT22;8948;51.534;8.262;2022-08-27T20:02:11;20.80;58.60
17659;DHT22;8948;51.534;8.262;2022-08-27T20:07:11;20.70;58.20
17659;DHT22;8948;51.534;8.262;2022-08-27T20:12:12;20.60;58.40
17659;DHT22;8948;51.534;8.262;2022-08-27T20:17:14;20.60;58.90
17659;DHT22;8948;51.534;8.262;2022-08-27T20:22:15;20.70;58.40
17659;DHT22;8948;51.534;8.262;2022-08-27T20:27:15;20.70;58.40
17659;DHT22;8948;51.534;8.262;2022-08-27T20:32:16;20.70;58.10
17659;DHT22;8948;51.534;8.262;2022-08-27T20:37:18;20.70;58.00
17659;DHT22;8948;51.534;8.262;2022-08-27T20:42:19;20.70;58.20
17659;DHT22;8948;51.534;8.262;2022-08-27T20:47:22;20.70;58.10
17659;DHT22;8948;51.534;8.262;2022-08-27T20:52:24;20.60;58.70
17659;DHT22;8948;51.534;8.262;2022-08-27T20:57:25;20.60;58.20
